Time;durP1;ratioP1;P1;durP2;ratioP2;P2;SDS_P1;SDS_P2;PMS_P1;PMS_P2;Temp;Humidity;BMP_temperature;BMP_pressure;BME280_temperature;BME280_humidity;BME280_pressure;Samples;Min_cycle;Max_cycle;Signal;HPM_P1;HPM_P2
2023/04/30 00:01:56;;;;;;;20.40;11.70;;;;;;;8.04;95.92;100672.05;218014;1288;138820;-91
2023/04/30 00:06:57;;;;;;;19.10;11.00;;;;;;;7.93;96.14;100674.73;218499;1289;139439;-93
2023/04/30 00:11:57;;;;;;;20.30;12.50;;;;;;;7.84;96.14;100682.27;217892;1289;139162;-92
2023/04/30 00:16:57;;;;;;;19.60;11.70;;;;;;;7.74;96.26;100682.23;218465;1289;139267;-93
2023/04/30 00:22:00;;;;;;;18.20;11.20;;;;;;;7.65;96.21;100685.69;217937;1288;139403;-92
2023/04/30 00:27:00;;;;;;;17.10;10.60;;;;;;;7.57;96.14;100690.70;218534;1289;139022;-92
2023/04/30 00:32:01;;;;;;;18.90;10.90;;;;;;;7.48;96.14;100694.66;218099;1288;140283;-92
2023/04/30 00:37:02;;;;;;;17.30;10.20;;;;;;;7.36;96.00;100699.73;218587;1291;138671;-93
2023/04/30 00:42:03;;;;;;;18.00;10.10;;;;;;;7.24;96.29;100706.02;218099;1288;139073;-93
2023/04/30 00:47:04;;;;;;;18.20;10.60;;;;;;;7.12;96.26;100710.45;218749;1288;139330;-93
2023/04/30 00:52:04;;;;;;;19.90;11.60;;;;;;;7.01;96.11;100715.06;218252;1289;138893;-91
2023/04/30 00:57:08;;;;;;;19.20;11.40;;;;;;;6.86;96.31;100715.71;218661;1289;139118;-92
2023/04/30 01:02:09;;;;;;;20.80;10.60;;;;;;;6.73;96.63;100717.27;218241;1290;139527;-92
2023/04/30 01:07:09;;;;;;;18.00;10.20;;;;;;;6.60;96.47;100723.80;218728;1291;138800;-93
2023/04/30 01:12:37;;;;;;;16.00;10.10;;;;;;;6.50;96.79;100723.23;218028;1289;139413;-93
2023/04/30 01:17:53;;;;;;;16.90;9.40;;;;;;;6.40;97.02;100727.99;218508;1288;139023;-93
2023/04/30 01:23:02;;;;;;;16.30;8.60;;;;;;;6.31;97.30;100731.59;218012;1288;138923;-93
2023/04/30 01:28:13;;;;;;;23.50;10.50;;;;;;;6.25;97.43;100736.38;218701;1288;138914;-93
2023/04/30 01:33:14;;;;;;;16.60;8.80;;;;;;;6.18;97.54;100738.05;218117;1288;138978;-93
2023/04/30 01:38:29;;;;;;;18.90;9.50;;;;;;;6.13;97.84;100743.88;218829;1289;95943;-94
2023/04/30 01:43:41;;;;;;;18.70;9.60;;;;;;;6.09;98.23;100750.14;218306;1288;138707;-93
2023/04/30 01:48:53;;;;;;;16.80;9.10;;;;;;;6.06;98.26;100757.52;218615;1289;138871;-94
2023/04/30 01:53:56;;;;;;;18.40;9.50;;;;;;;6.01;98.57;100765.49;217937;1289;138883;-92
2023/04/30 01:58:58;;;;;;;18.00;9.50;;;;;;;5.97;98.62;100768.85;218005;1289;139932;-90
2023/04/30 02:03:59;;;;;;;16.70;9.60;;;;;;;5.94;98.87;100772.80;218706;1288;138720;-91
2023/04/30 02:09:05;;;;;;;17.30;9.50;;;;;;;5.92;98.79;100781.23;218104;1291;139592;-89
2023/04/30 02:14:05;;;;;;;19.60;10.60;;;;;;;5.88;98.90;100787.33;218603;1292;107705;-92
2023/04/30 02:19:06;;;;;;;18.60;9.50;;;;;;;5.85;99.18;100792.31;218124;1288;140212;-91
2023/04/30 02:24:06;;;;;;;17.90;10.10;;;;;;;5.81;99.12;100800.28;218586;1289;139336;-92
2023/04/30 02:29:07;;;;;;;15.70;8.80;;;;;;;5.78;99.44;100804.12;218060;1289;139332;-91
2023/04/30 02:34:07;;;;;;;18.90;10.50;;;;;;;5.76;99.39;100810.04;218984;1288;139008;-93
2023/04/30 02:39:08;;;;;;;16.70;9.50;;;;;;;5.74;99.49;100812.85;218338;1288;139566;-93
2023/04/30 02:44:08;;;;;;;20.30;9.70;;;;;;;5.71;99.63;100816.36;218927;1289;95956;-94
2023/04/30 02:49:08;;;;;;;19.60;9.40;;;;;;;5.67;99.50;100815.59;218388;1289;139522;-94
2023/04/30 02:54:09;;;;;;;17.20;8.70;;;;;;;5.62;99.50;100822.73;218878;1288;138725;-94
2023/04/30 02:59:10;;;;;;;15.80;8.40;;;;;;;5.58;99.41;100826.72;218178;1290;139518;-93
2023/04/30 03:04:10;;;;;;;18.90;8.40;;;;;;;5.53;99.38;100830.20;218780;1289;138704;-92
2023/04/30 03:09:11;;;;;;;14.60;7.90;;;;;;;5.47;99.51;100834.55;217896;1289;139117;-94
2023/04/30 03:14:12;;;;;;;17.70;8.00;;;;;;;5.40;99.61;100840.45;218621;1289;96116;-93
2023/04/30 03:19:12;;;;;;;15.00;7.30;;;;;;;5.34;99.68;100845.46;218061;1288;139065;-94
2023/04/30 03:24:13;;;;;;;19.20;9.50;;;;;;;5.28;99.53;100847.71;218816;1289;138638;-92
2023/04/30 03:29:13;;;;;;;19.50;9.00;;;;;;;5.22;99.80;100850.45;217836;1289;140370;-91
2023/04/30 03:34:14;;;;;;;12.80;7.10;;;;;;;5.17;99.60;100855.95;218651;1288;138695;-93
2023/04/30 03:39:15;;;;;;;18.20;7.90;;;;;;;5.12;99.69;100862.59;218237;1289;139936;-94
2023/04/30 03:44:15;;;;;;;16.50;7.70;;;;;;;5.07;99.59;100861.70;218866;1288;96057;-93
2023/04/30 03:49:15;;;;;;;16.50;8.10;;;;;;;5.00;99.71;100865.86;218152;1289;138467;-95
2023/04/30 03:54:16;;;;;;;16.30;9.30;;;;;;;4.96;99.75;100878.18;219297;1288;138655;-94
2023/04/30 03:59:17;;;;;;;16.50;7.80;;;;;;;4.92;99.85;100888.69;218703;1288;138724;-95
2023/04/30 04:04:17;;;;;;;14.40;7.90;;;;;;;4.87;99.85;100892.98;218901;1291;139443;-93
2023/04/30 04:09:23;;;;;;;19.00;10.20;;;;;;;4.82;99.91;100901.77;218617;1289;139000;-93
2023/04/30 04:14:23;;;;;;;24.80;11.30;;;;;;;4.79;100.00;100909.02;219079;1289;95996;-95
2023/04/30 04:19:27;;;;;;;21.90;10.90;;;;;;;4.77;100.00;100913.52;214716;1288;5227913;-86
2023/04/30 04:24:27;;;;;;;25.60;11.70;;;;;;;4.76;100.00;100920.41;219045;1288;139166;-86
2023/04/30 04:29:28;;;;;;;20.20;8.80;;;;;;;4.75;100.00;100927.48;218564;1288;139706;-86
2023/04/30 04:34:28;;;;;;;22.20;9.40;;;;;;;4.76;100.00;100936.88;219055;1288;139861;-85
2023/04/30 04:39:29;;;;;;;14.80;7.90;;;;;;;4.77;100.00;100941.88;218321;1288;139585;-85
2023/04/30 04:44:29;;;;;;;16.30;7.90;;;;;;;4.80;100.00;100942.56;219137;1288;95695;-86
2023/04/30 04:49:30;;;;;;;17.40;8.70;;;;;;;4.85;100.00;100951.64;218620;1288;139316;-88
2023/04/30 04:54:30;;;;;;;13.80;7.10;;;;;;;4.89;100.00;100952.75;219026;1288;139113;-88
2023/04/30 04:59:31;;;;;;;14.10;7.30;;;;;;;4.94;100.00;100957.41;218337;1288;139486;-87
2023/04/30 05:04:31;;;;;;;18.40;7.90;;;;;;;5.00;100.00;100965.28;218860;1288;140087;-87
2023/04/30 05:09:31;;;;;;;14.90;6.80;;;;;;;5.05;100.00;100976.98;218410;1288;139872;-87
2023/04/30 05:14:32;;;;;;;14.70;6.00;;;;;;;5.10;100.00;100984.75;218921;1288;95667;-85
2023/04/30 05:19:32;;;;;;;17.50;6.40;;;;;;;5.19;100.00;100986.30;218520;1288;139290;-88
2023/04/30 05:24:33;;;;;;;18.60;6.30;;;;;;;5.31;100.00;100995.13;218793;1288;139436;-86
2023/04/30 05:29:33;;;;;;;15.00;6.50;;;;;;;5.51;100.00;100996.50;218529;1288;139573;-88
2023/04/30 05:34:33;;;;;;;11.70;5.90;;;;;;;5.86;100.00;100999.30;218780;1288;139148;-88
2023/04/30 05:39:34;;;;;;;12.20;5.80;;;;;;;6.37;100.00;101004.60;218365;1288;139292;-88
2023/04/30 05:44:34;;;;;;;12.30;5.50;;;;;;;7.03;100.00;101012.31;219231;1288;95785;-89
2023/04/30 05:49:35;;;;;;;15.10;4.70;;;;;;;7.71;100.00;101020.91;218317;1288;210112;-88
2023/04/30 05:54:35;;;;;;;12.70;4.10;;;;;;;8.38;100.00;101027.80;218928;1288;139012;-86
2023/04/30 05:59:36;;;;;;;10.80;4.30;;;;;;;8.95;98.96;101032.55;218432;1289;139108;-91
2023/04/30 06:04:37;;;;;;;14.10;5.00;;;;;;;9.46;97.60;101035.14;219030;1288;138844;-86
2023/04/30 06:09:37;;;;;;;10.50;4.40;;;;;;;9.97;96.05;101045.29;218504;1288;141021;-84
2023/04/30 06:14:38;;;;;;;11.00;3.50;;;;;;;10.38;94.05;101043.79;219195;1288;96024;-85
2023/04/30 06:19:38;;;;;;;11.50;3.90;;;;;;;10.60;91.53;101045.92;218275;1289;138915;-87
2023/04/30 06:24:39;;;;;;;9.30;3.40;;;;;;;10.70;90.25;101048.94;218809;1288;138908;-85
2023/04/30 06:29:39;;;;;;;11.90;3.70;;;;;;;10.80;88.97;101050.08;218498;1288;139054;-83
2023/04/30 06:34:39;;;;;;;11.00;3.90;;;;;;;10.84;88.41;101057.50;219203;1288;137878;-87
2023/04/30 06:39:40;;;;;;;11.40;3.90;;;;;;;10.85;85.16;101058.92;218385;1288;139417;-87
2023/04/30 06:44:40;;;;;;;10.00;3.50;;;;;;;10.75;84.84;101063.36;218972;1288;110114;-85
2023/04/30 06:49:40;;;;;;;9.80;3.50;;;;;;;10.74;84.44;101068.93;218495;1288;139629;-84
2023/04/30 06:54:42;;;;;;;11.80;3.50;;;;;;;10.68;83.07;101066.38;219083;1288;138735;-85
2023/04/30 06:59:43;;;;;;;10.60;4.10;;;;;;;10.54;81.55;101076.05;218487;1288;139825;-86
2023/04/30 07:04:43;;;;;;;11.30;3.60;;;;;;;10.41;81.19;101078.52;219034;1288;140142;-83
2023/04/30 07:09:43;;;;;;;7.00;2.50;;;;;;;10.34;81.54;101079.77;218556;1288;139813;-84
2023/04/30 07:14:44;;;;;;;13.70;4.60;;;;;;;10.42;81.80;101076.20;218933;1288;95686;-84
2023/04/30 07:19:44;;;;;;;9.80;3.50;;;;;;;10.46;81.13;101073.30;218371;1288;140191;-85
2023/04/30 07:24:45;;;;;;;10.10;3.10;;;;;;;10.46;80.26;101076.60;219011;1288;139418;-85
2023/04/30 07:29:45;;;;;;;12.50;3.30;;;;;;;10.42;79.81;101071.85;218456;1288;139211;-83
2023/04/30 07:34:45;;;;;;;8.60;3.70;;;;;;;10.43;79.82;101078.11;219035;1289;140335;-86
2023/04/30 07:39:46;;;;;;;13.30;2.90;;;;;;;10.44;78.74;101077.24;218315;1289;140078;-85
2023/04/30 07:44:47;;;;;;;11.30;3.10;;;;;;;10.48;78.67;101084.03;218965;1289;96062;-84
2023/04/30 07:49:48;;;;;;;12.10;2.80;;;;;;;10.56;78.40;101085.93;218315;1288;139915;-84
2023/04/30 07:54:49;;;;;;;8.40;3.20;;;;;;;10.62;78.36;101097.72;219021;1288;138879;-83
2023/04/30 07:59:49;;;;;;;9.30;3.00;;;;;;;10.72;77.60;101102.63;218493;1288;139702;-85
2023/04/30 08:04:49;;;;;;;7.60;2.80;;;;;;;10.82;77.89;101099.55;218844;1288;139830;-85
2023/04/30 08:09:50;;;;;;;7.80;2.80;;;;;;;11.02;78.21;101095.70;218349;1288;139924;-87
2023/04/30 08:14:59;;;;;;;10.30;3.50;;;;;;;11.37;78.23;101096.07;219104;1288;95824;-85
2023/04/30 08:20:03;;;;;;;9.90;2.80;;;;;;;11.93;77.82;101098.95;218423;1288;140196;-86
2023/04/30 08:25:23;;;;;;;9.00;3.00;;;;;;;12.66;76.63;101102.89;218866;1288;139676;-92
2023/04/30 08:30:24;;;;;;;7.80;2.10;;;;;;;13.47;73.66;101103.00;218264;1291;139485;-87
2023/04/30 08:35:25;;;;;;;5.90;2.40;;;;;;;14.34;71.79;101111.09;219039;1291;139018;-86
2023/04/30 08:40:28;;;;;;;7.30;2.40;;;;;;;15.41;71.93;101112.34;218321;1288;138565;-89
2023/04/30 08:51:10;;;;;;;10.20;2.40;;;;;;;17.31;66.10;101112.17;217155;1289;139242;-89
2023/04/30 08:56:10;;;;;;;7.60;2.10;;;;;;;18.15;64.25;101117.33;218919;1289;95647;-85
2023/04/30 09:01:18;;;;;;;6.00;2.10;;;;;;;18.88;61.65;101121.28;218360;1289;138246;-89
2023/04/30 09:06:20;;;;;;;8.60;1.70;;;;;;;19.63;59.45;101129.09;218813;1288;138361;-91
2023/04/30 09:11:27;;;;;;;7.50;2.10;;;;;;;20.31;58.50;101123.86;218351;1288;138612;-88
2023/04/30 09:16:46;;;;;;;8.00;2.50;;;;;;;21.16;56.04;101118.30;218865;1288;138301;-87
2023/04/30 09:21:47;;;;;;;7.60;1.80;;;;;;;21.90;52.25;101119.60;218335;1288;138165;-89
2023/04/30 09:26:49;;;;;;;6.60;1.80;;;;;;;22.26;52.12;101126.39;219013;1288;95630;-86
2023/04/30 09:31:50;;;;;;;7.80;2.30;;;;;;;22.78;50.41;101129.11;218382;1288;138134;-86
2023/04/30 09:36:55;;;;;;;5.20;1.80;;;;;;;23.29;48.17;101124.42;219122;1288;138015;-90
2023/04/30 09:42:09;;;;;;;5.70;1.50;;;;;;;23.46;45.97;101129.13;218298;1288;138252;-88
2023/04/30 09:47:19;;;;;;;5.30;1.80;;;;;;;23.86;45.99;101131.74;219043;1288;138242;-88
2023/04/30 09:52:20;;;;;;;6.00;1.90;;;;;;;24.12;44.82;101122.52;218332;1288;138341;-89
2023/04/30 09:57:23;;;;;;;6.40;2.10;;;;;;;24.44;39.91;101119.20;219174;1288;139157;-87
2023/04/30 10:02:24;;;;;;;7.20;2.10;;;;;;;24.13;39.90;101122.33;218513;1288;138140;-93
2023/04/30 10:07:35;;;;;;;6.90;1.80;;;;;;;24.36;40.26;101120.34;218741;1288;138395;-91
2023/04/30 10:12:51;;;;;;;7.50;2.40;;;;;;;24.49;39.39;101121.10;218503;1288;138957;-87
2023/04/30 10:17:59;;;;;;;8.30;2.30;;;;;;;24.78;39.55;101108.27;218995;1288;138334;-90
2023/04/30 10:23:00;;;;;;;6.40;2.20;;;;;;;24.96;38.80;101106.47;218179;1288;139411;-89
2023/04/30 10:28:00;;;;;;;8.70;2.40;;;;;;;25.36;38.53;101096.25;218880;1288;138618;-92
2023/04/30 10:33:37;;;;;;;6.40;2.10;;;;;;;25.48;38.58;101102.17;218400;1288;138102;-89
2023/04/30 10:38:57;;;;;;;6.50;2.00;;;;;;;26.05;37.96;101099.91;218920;1288;95681;-90
2023/04/30 10:44:01;;;;;;;8.10;2.00;;;;;;;25.97;33.51;101093.94;218733;1288;139287;-91
2023/04/30 10:49:02;;;;;;;9.00;2.50;;;;;;;25.24;34.80;101091.24;218533;1288;139427;-91
2023/04/30 10:54:02;;;;;;;9.40;2.50;;;;;;;25.40;35.72;101090.70;218837;1288;138216;-94
2023/04/30 10:59:03;;;;;;;7.60;2.30;;;;;;;25.56;35.71;101094.04;218538;1288;138873;-92
2023/04/30 11:04:07;;;;;;;7.00;2.10;;;;;;;25.81;35.71;101088.91;218979;1288;138219;-91
2023/04/30 11:09:07;;;;;;;6.10;2.20;;;;;;;25.91;33.93;101092.41;218501;1288;138133;-90
2023/04/30 11:14:10;;;;;;;7.10;2.10;;;;;;;25.74;34.46;101092.23;218856;1288;137784;-93
2023/04/30 11:19:13;;;;;;;7.60;2.60;;;;;;;25.75;34.21;101088.25;218576;1288;138327;-92
2023/04/30 11:24:13;;;;;;;8.30;2.70;;;;;;;25.68;32.84;101077.81;218869;1288;139224;-92
2023/04/30 11:29:14;;;;;;;5.30;2.10;;;;;;;25.39;33.71;101080.70;218370;1288;138073;-87
2023/04/30 11:34:16;;;;;;;8.50;2.90;;;;;;;25.28;32.38;101077.57;219116;1288;138547;-94
2023/04/30 11:39:18;;;;;;;8.20;2.70;;;;;;;24.55;33.43;101089.44;218388;1288;138242;-90
2023/04/30 11:44:24;;;;;;;6.30;2.20;;;;;;;24.66;33.50;101083.77;218987;1288;96030;-87
2023/04/30 11:49:25;;;;;;;7.70;2.20;;;;;;;24.70;33.70;101088.15;218303;1288;139513;-89
2023/04/30 11:54:26;;;;;;;12.50;3.60;;;;;;;24.66;33.14;101086.08;218850;1288;138587;-89
2023/04/30 11:59:26;;;;;;;6.50;1.90;;;;;;;24.25;32.79;101087.94;218392;1288;138783;-90
2023/04/30 12:04:27;;;;;;;6.30;2.40;;;;;;;24.21;34.50;101090.25;219048;1288;138326;-86
2023/04/30 12:09:28;;;;;;;5.80;1.90;;;;;;;24.12;33.60;101086.93;218529;1288;139607;-91
2023/04/30 12:14:32;;;;;;;4.90;1.80;;;;;;;23.98;33.00;101089.27;218982;1288;97058;-88
2023/04/30 12:19:33;;;;;;;8.40;2.30;;;;;;;23.81;33.79;101083.05;218411;1288;139444;-90
2023/04/30 12:24:33;;;;;;;8.40;2.40;;;;;;;23.65;33.98;101085.65;218937;1288;138340;-87
2023/04/30 12:29:34;;;;;;;8.80;2.00;;;;;;;23.49;33.55;101079.84;218401;1288;138353;-89
2023/04/30 12:34:37;;;;;;;5.90;1.80;;;;;;;23.20;34.59;101081.93;218914;1288;138385;-87
2023/04/30 12:39:39;;;;;;;5.00;1.80;;;;;;;23.10;34.05;101081.18;218337;1288;140448;-92
2023/04/30 12:44:44;;;;;;;8.40;2.40;;;;;;;23.02;35.04;101082.54;219186;1288;107845;-88
2023/04/30 12:49:45;;;;;;;6.30;2.20;;;;;;;22.95;33.18;101073.69;218295;1288;138312;-89
2023/04/30 12:54:46;;;;;;;6.10;1.90;;;;;;;22.63;33.79;101073.66;218785;1288;138346;-89
2023/04/30 12:59:52;;;;;;;5.50;1.90;;;;;;;22.27;34.07;101061.30;218235;1288;138401;-90
2023/04/30 13:04:53;;;;;;;6.80;1.90;;;;;;;22.14;36.14;101065.52;219045;1288;138175;-89
2023/04/30 13:15:51;;;;;;;8.10;2.20;;;;;;;21.95;35.34;101066.15;217652;1295;138413;-90
2023/04/30 13:21:09;;;;;;;6.10;2.00;;;;;;;21.55;35.39;101057.13;218273;1289;138523;-90
2023/04/30 13:26:10;;;;;;;6.00;1.70;;;;;;;21.62;38.15;101058.87;218781;1289;106098;-88
2023/04/30 13:31:19;;;;;;;6.40;2.20;;;;;;;21.64;36.01;101058.33;218083;1289;138366;-91
2023/04/30 13:36:19;;;;;;;7.50;2.40;;;;;;;21.46;34.43;101056.36;218599;1288;138250;-88
2023/04/30 13:41:21;;;;;;;4.00;2.00;;;;;;;21.27;35.79;101061.76;218100;1289;138230;-88
2023/04/30 13:46:22;;;;;;;8.00;2.70;;;;;;;21.23;37.40;101052.50;218890;1289;138205;-88
2023/04/30 13:51:23;;;;;;;6.40;2.50;;;;;;;20.81;35.70;101050.50;218205;1289;138312;-88
2023/04/30 13:56:24;;;;;;;8.10;2.30;;;;;;;20.54;35.71;101049.93;218871;1289;95714;-91
2023/04/30 14:01:28;;;;;;;10.20;2.70;;;;;;;20.29;37.82;101051.70;218054;1289;138368;-87
2023/04/30 14:06:29;;;;;;;11.10;3.20;;;;;;;20.26;36.08;101042.81;218885;1289;138696;-85
2023/04/30 14:11:29;;;;;;;7.80;2.60;;;;;;;20.15;35.69;101041.58;218187;1289;141498;-85
2023/04/30 14:16:30;;;;;;;9.50;2.80;;;;;;;19.93;36.31;101041.37;218883;1288;138204;-88
2023/04/30 14:21:32;;;;;;;6.20;2.10;;;;;;;19.84;36.10;101036.34;218139;1289;138380;-90
2023/04/30 14:26:32;;;;;;;5.60;2.10;;;;;;;19.54;39.42;101031.83;218821;1288;95667;-87
2023/04/30 14:31:32;;;;;;;18.00;6.90;;;;;;;19.40;36.68;101035.70;218367;1289;138203;-88
2023/04/30 14:36:34;;;;;;;8.10;2.70;;;;;;;19.30;37.53;101036.66;218767;1288;139451;-87
2023/04/30 14:41:35;;;;;;;7.40;3.40;;;;;;;19.18;37.18;101032.27;218119;1289;138755;-86
2023/04/30 14:46:36;;;;;;;7.20;2.40;;;;;;;19.12;38.02;101030.27;218589;1289;138536;-91
2023/04/30 14:51:36;;;;;;;7.50;2.00;;;;;;;18.79;37.23;101029.38;218369;1289;139272;-89
2023/04/30 14:56:37;;;;;;;8.70;2.70;;;;;;;18.63;39.58;101031.48;219023;1289;95725;-87
2023/04/30 15:01:37;;;;;;;9.60;3.40;;;;;;;18.51;38.66;101034.49;218520;1289;139693;-87
2023/04/30 15:06:38;;;;;;;8.50;2.90;;;;;;;18.34;39.59;101030.30;218849;1289;138481;-87
2023/04/30 15:11:38;;;;;;;10.20;4.50;;;;;;;18.17;39.21;101028.23;218133;1289;138506;-85
2023/04/30 15:16:38;;;;;;;12.90;6.10;;;;;;;18.10;38.34;101027.27;218735;1289;138656;-86
2023/04/30 15:21:39;;;;;;;10.30;3.70;;;;;;;17.88;38.72;101021.11;218436;1288;139561;-85
2023/04/30 15:26:39;;;;;;;9.80;3.00;;;;;;;17.70;39.34;101019.38;219202;1288;95674;-88
2023/04/30 15:31:40;;;;;;;7.60;2.60;;;;;;;17.58;39.59;101019.80;218544;1288;138391;-87
2023/04/30 15:36:41;;;;;;;6.20;2.30;;;;;;;17.24;39.21;101020.00;218916;1288;138113;-86
2023/04/30 15:41:43;;;;;;;6.00;2.30;;;;;;;17.00;39.83;101020.16;218564;1288;138891;-87
2023/04/30 15:46:43;;;;;;;5.70;2.40;;;;;;;16.86;38.83;101015.63;218784;1288;138332;-86
2023/04/30 15:51:45;;;;;;;10.40;4.30;;;;;;;16.66;38.89;101018.33;218416;1288;139501;-88
2023/04/30 15:56:46;;;;;;;12.30;4.00;;;;;;;16.49;40.44;101017.05;218977;1288;95652;-87
2023/04/30 16:01:46;;;;;;;8.70;2.60;;;;;;;16.28;40.35;101018.35;218580;1288;138969;-87
2023/04/30 16:06:47;;;;;;;7.70;2.70;;;;;;;16.08;41.14;101017.45;219157;1288;138118;-86
2023/04/30 16:11:49;;;;;;;8.10;2.40;;;;;;;15.91;41.06;101017.55;218530;1288;139075;-87
2023/04/30 16:16:50;;;;;;;6.20;2.30;;;;;;;15.73;42.11;101011.63;218499;1288;286633;-88
2023/04/30 16:21:50;;;;;;;5.40;2.30;;;;;;;15.58;42.15;101017.41;218394;1288;138218;-87
2023/04/30 16:26:51;;;;;;;9.50;3.30;;;;;;;15.43;42.08;101014.71;218741;1289;95971;-86
2023/04/30 16:31:51;;;;;;;9.20;4.00;;;;;;;15.22;41.14;101015.94;218248;1289;138169;-86
2023/04/30 16:36:52;;;;;;;13.90;3.70;;;;;;;15.01;42.14;101017.64;218706;1289;139156;-86
2023/04/30 16:41:52;;;;;;;6.40;2.80;;;;;;;14.89;42.86;101017.84;218424;1289;138365;-87
2023/04/30 16:46:55;;;;;;;11.30;3.40;;;;;;;14.76;42.57;101015.80;218780;1290;139315;-87
2023/04/30 16:51:56;;;;;;;7.40;2.60;;;;;;;14.57;42.22;101016.22;218170;1289;138830;-85
2023/04/30 16:56:56;;;;;;;6.40;2.30;;;;;;;14.42;43.43;101019.95;219030;1289;96914;-86
2023/04/30 17:01:59;;;;;;;5.70;2.60;;;;;;;14.31;43.28;101022.35;218382;1289;138640;-85
2023/04/30 17:06:59;;;;;;;9.40;2.60;;;;;;;14.16;43.17;101020.73;218767;1289;138338;-84
2023/04/30 17:12:01;;;;;;;8.40;3.00;;;;;;;14.03;44.14;101016.69;218394;1289;138438;-85
2023/04/30 17:17:01;;;;;;;6.20;2.50;;;;;;;13.94;45.80;101013.87;218677;1289;138797;-84
2023/04/30 17:22:02;;;;;;;7.90;2.80;;;;;;;13.81;45.82;101015.98;218374;1288;138987;-84
2023/04/30 17:27:04;;;;;;;9.20;2.90;;;;;;;13.66;45.44;101018.23;219293;1288;96049;-85
2023/04/30 17:32:05;;;;;;;7.60;2.60;;;;;;;13.46;45.47;101018.22;218658;1288;138743;-84
2023/04/30 17:37:06;;;;;;;12.60;5.20;;;;;;;13.33;46.14;101026.56;218959;1288;138728;-85
2023/04/30 17:42:06;;;;;;;8.40;3.10;;;;;;;13.19;46.85;101029.51;218523;1288;139455;-85
2023/04/30 17:47:07;;;;;;;6.80;2.60;;;;;;;13.05;47.46;101039.71;219028;1288;139594;-86
2023/04/30 17:52:07;;;;;;;11.60;5.10;;;;;;;12.92;47.66;101041.82;218657;1288;138695;-84
2023/04/30 17:57:08;;;;;;;13.00;4.70;;;;;;;12.76;47.71;101045.33;219075;1288;95703;-84
2023/04/30 18:02:08;;;;;;;12.40;4.40;;;;;;;12.61;48.67;101050.27;218639;1288;139054;-84
2023/04/30 18:07:08;;;;;;;9.10;3.20;;;;;;;12.47;48.76;101047.64;219126;1288;140167;-84
2023/04/30 18:12:09;;;;;;;9.50;3.30;;;;;;;12.29;49.14;101051.34;218610;1288;138912;-84
2023/04/30 18:17:10;;;;;;;8.20;3.30;;;;;;;12.06;49.42;101052.58;219152;1288;139618;-85
2023/04/30 18:22:11;;;;;;;8.40;3.10;;;;;;;11.87;50.35;101054.98;218391;1289;140150;-84
2023/04/30 18:27:12;;;;;;;8.80;3.80;;;;;;;11.72;50.80;101056.14;218954;1289;138162;-85
2023/04/30 18:32:14;;;;;;;7.90;3.40;;;;;;;11.50;51.23;101065.04;218501;1289;138984;-84
2023/04/30 18:37:16;;;;;;;11.60;4.90;;;;;;;11.27;52.33;101062.81;218912;1289;140221;-84
2023/04/30 18:42:17;;;;;;;15.80;7.00;;;;;;;11.07;52.52;101065.27;218344;1290;138460;-84
2023/04/30 18:47:17;;;;;;;20.40;9.50;;;;;;;10.82;53.07;101070.82;218883;1289;138399;-84
2023/04/30 18:52:18;;;;;;;22.70;11.00;;;;;;;10.61;54.89;101079.04;218393;1289;139636;-84
2023/04/30 18:57:18;;;;;;;23.90;12.50;;;;;;;10.47;55.27;101079.67;218926;1289;139222;-85
2023/04/30 19:02:20;;;;;;;22.20;10.80;;;;;;;10.34;56.37;101088.50;218505;1289;139166;-84
2023/04/30 19:07:21;;;;;;;23.40;9.60;;;;;;;10.18;56.37;101096.55;218885;1289;139445;-84
2023/04/30 19:12:21;;;;;;;21.70;10.60;;;;;;;10.00;56.81;101097.98;218289;1291;139130;-84
2023/04/30 19:17:21;;;;;;;18.30;8.80;;;;;;;9.81;57.37;101103.55;218892;1289;139166;-84
2023/04/30 19:22:22;;;;;;;17.50;8.80;;;;;;;9.64;58.11;101104.55;218242;1289;138267;-84
2023/04/30 19:27:23;;;;;;;21.20;9.70;;;;;;;9.47;58.47;101105.90;218788;1289;137963;-84
2023/04/30 19:32:23;;;;;;;17.80;9.00;;;;;;;9.26;59.51;101106.44;218523;1289;138952;-84
2023/04/30 19:37:24;;;;;;;20.30;10.30;;;;;;;9.12;60.47;101107.09;218902;1289;138873;-84
2023/04/30 19:42:24;;;;;;;21.30;11.10;;;;;;;8.99;61.04;101110.02;218265;1289;138676;-84
2023/04/30 19:47:24;;;;;;;22.50;12.20;;;;;;;8.86;61.96;101117.46;218951;1289;138162;-84
2023/04/30 19:52:25;;;;;;;27.10;14.80;;;;;;;8.71;62.13;101119.38;218407;1289;139243;-84
2023/04/30 19:57:26;;;;;;;36.00;17.20;;;;;;;8.59;62.39;101121.38;218826;1289;138072;-84
2023/04/30 20:02:27;;;;;;;38.40;18.50;;;;;;;8.46;62.99;101130.38;218530;1289;137978;-84
2023/04/30 20:07:27;;;;;;;35.00;16.40;;;;;;;8.31;63.14;101135.70;218976;1289;138588;-84
2023/04/30 20:12:28;;;;;;;31.10;15.50;;;;;;;8.17;63.80;101133.61;218431;1290;138946;-83
2023/04/30 20:17:32;;;;;;;23.50;13.00;;;;;;;8.05;64.34;101129.05;218947;1290;138431;-84
2023/04/30 20:22:33;;;;;;;27.60;13.50;;;;;;;7.86;65.11;101134.06;218359;1289;138814;-84
2023/04/30 20:27:33;;;;;;;22.30;10.20;;;;;;;7.68;65.70;101137.05;218917;1288;138103;-84
2023/04/30 20:32:35;;;;;;;21.70;10.30;;;;;;;7.55;66.23;101140.12;218506;1288;140191;-84
2023/04/30 20:37:36;;;;;;;21.60;10.40;;;;;;;7.42;66.50;101137.58;218730;1290;139975;-84
2023/04/30 20:42:39;;;;;;;18.70;8.50;;;;;;;7.30;66.99;101134.27;218348;1288;139149;-83
2023/04/30 20:47:40;;;;;;;15.30;7.40;;;;;;;7.20;67.04;101139.46;218874;1290;138250;-83
2023/04/30 20:52:40;;;;;;;18.80;7.40;;;;;;;7.08;67.39;101143.63;218406;1289;138329;-83
2023/04/30 20:57:40;;;;;;;17.70;8.20;;;;;;;6.90;67.05;101144.21;218918;1289;138233;-83
2023/04/30 21:02:41;;;;;;;17.80;8.00;;;;;;;6.77;67.55;101146.90;218378;1289;138299;-82
2023/04/30 21:07:41;;;;;;;19.30;8.90;;;;;;;6.68;67.85;101155.41;218946;1289;138784;-83
2023/04/30 21:12:42;;;;;;;22.40;10.30;;;;;;;6.61;68.55;101163.02;218417;1289;137936;-83
2023/04/30 21:17:42;;;;;;;23.80;10.60;;;;;;;6.53;68.70;101164.67;218710;1289;140075;-83
2023/04/30 21:22:43;;;;;;;20.30;9.80;;;;;;;6.45;68.86;101168.27;218410;1289;139055;-81
2023/04/30 21:27:44;;;;;;;20.10;9.30;;;;;;;6.36;69.16;101175.32;218831;1289;139173;-83
2023/04/30 21:32:47;;;;;;;17.80;8.90;;;;;;;6.25;69.42;101176.38;218349;1290;138525;-82
2023/04/30 21:37:47;;;;;;;16.80;8.40;;;;;;;6.17;69.66;101174.25;218748;1291;138425;-82
2023/04/30 21:42:48;;;;;;;20.20;8.20;;;;;;;6.10;69.49;101174.58;218242;1288;138543;-83
2023/04/30 21:47:48;;;;;;;15.60;7.60;;;;;;;6.01;69.49;101180.15;219046;1289;138455;-81
2023/04/30 21:52:50;;;;;;;17.10;8.10;;;;;;;5.91;70.06;101178.95;218305;1290;138950;-81
2023/04/30 21:57:50;;;;;;;11.90;6.30;;;;;;;5.82;70.42;101183.89;218913;1290;138794;-83
2023/04/30 22:02:50;;;;;;;12.70;6.20;;;;;;;5.74;70.42;101186.10;218485;1288;139914;-82
2023/04/30 22:07:51;;;;;;;15.50;6.40;;;;;;;5.68;70.83;101191.67;218901;1289;138921;-83
2023/04/30 22:12:51;;;;;;;17.60;7.20;;;;;;;5.59;71.28;101193.35;218397;1289;139039;-82
2023/04/30 22:17:51;;;;;;;14.10;6.90;;;;;;;5.50;71.61;101192.52;218740;1289;138731;-82
2023/04/30 22:22:52;;;;;;;14.50;6.30;;;;;;;5.40;71.89;101192.80;218349;1288;139210;-83
2023/04/30 22:27:52;;;;;;;14.20;6.30;;;;;;;5.32;71.92;101190.82;218934;1290;139111;-81
2023/04/30 22:32:56;;;;;;;13.40;5.30;;;;;;;5.26;72.05;101187.18;218457;1288;138504;-81
2023/04/30 22:37:56;;;;;;;14.60;6.00;;;;;;;5.20;72.29;101186.15;218648;1289;138713;-81
2023/04/30 22:42:57;;;;;;;11.90;5.10;;;;;;;5.17;72.32;101187.09;218153;1290;139179;-81
2023/04/30 22:47:58;;;;;;;11.50;4.40;;;;;;;5.13;72.45;101186.52;218940;1290;138846;-81
2023/04/30 22:52:58;;;;;;;18.10;5.10;;;;;;;5.09;72.56;101183.06;218433;1290;139801;-83
2023/04/30 22:58:00;;;;;;;15.30;5.40;;;;;;;5.05;72.62;101184.98;218945;1290;138839;-84